Time;durP1;ratioP1;P1;durP2;ratioP2;P2;SDS_P1;SDS_P2;PMS_P1;PMS_P2;Temp;Humidity;BMP_temperature;BMP_pressure;BME280_temperature;BME280_humidity;BME280_pressure;Samples;Min_cycle;Max_cycle;Signal;HPM_P1;HPM_P2
2021/09/10 00:01:51;;;;;;;3.45;2.96;;;;;;;17.61;88.86;99089.44;2027071;77;21154;-77
2021/09/10 00:04:53;;;;;;;4.36;2.55;;;;;;;17.65;88.95;99092.78;2028358;79;20188;-77
2021/09/10 00:07:56;;;;;;;3.08;2.86;;;;;;;17.68;89.26;99088.28;2028738;79;20618;-77
2021/09/10 00:10:59;;;;;;;5.35;2.80;;;;;;;17.74;89.27;99085.44;2027602;79;20170;-77
2021/09/10 00:14:02;;;;;;;3.49;3.01;;;;;;;17.77;89.54;99090.59;2029024;79;20171;-78
2021/09/10 00:17:04;;;;;;;3.59;2.80;;;;;;;17.83;89.39;99083.38;2026247;77;24034;-77
2021/09/10 00:20:07;;;;;;;3.83;2.80;;;;;;;17.86;89.58;99084.09;2028223;79;20166;-78
2021/09/10 00:23:10;;;;;;;3.41;2.80;;;;;;;17.89;89.64;99081.34;2032549;79;20854;-77
2021/09/10 00:26:13;;;;;;;4.40;2.75;;;;;;;17.94;89.24;99084.66;2028949;79;20235;-78
2021/09/10 00:29:16;;;;;;;3.56;2.55;;;;;;;17.95;89.13;99086.34;2028717;79;20640;-78
2021/09/10 00:32:18;;;;;;;4.45;2.85;;;;;;;17.94;89.02;99084.66;2027507;77;21367;-77
2021/09/10 00:35:21;;;;;;;4.60;2.80;;;;;;;17.92;88.84;99083.00;2029357;79;20264;-77
2021/09/10 00:38:23;;;;;;;6.72;2.91;;;;;;;17.85;88.81;99085.03;2027765;79;20171;-77
2021/09/10 00:41:26;;;;;;;3.90;2.79;;;;;;;17.83;88.68;99081.59;2028519;79;20196;-77
2021/09/10 00:44:29;;;;;;;2.75;2.51;;;;;;;17.78;88.71;99084.41;2028685;79;20188;-77
2021/09/10 00:47:31;;;;;;;2.42;2.22;;;;;;;17.73;88.78;99090.75;2026624;77;27866;-77
2021/09/10 00:50:34;;;;;;;3.76;2.49;;;;;;;17.71;89.00;99088.19;2028933;79;20807;-77
2021/09/10 00:53:37;;;;;;;7.51;2.66;;;;;;;17.69;89.25;99081.28;2028799;79;20199;-77
2021/09/10 00:56:39;;;;;;;3.56;3.01;;;;;;;17.65;89.71;99083.13;2028963;79;20234;-77
2021/09/10 00:59:42;;;;;;;4.15;2.56;;;;;;;17.69;89.79;99083.91;2028139;79;20146;-78
2021/09/10 01:02:45;;;;;;;6.66;2.61;;;;;;;17.72;89.93;99092.50;2028743;77;21236;-77
2021/09/10 01:05:48;;;;;;;4.78;2.60;;;;;;;17.75;89.94;99096.78;2027469;79;20216;-77
2021/09/10 01:08:51;;;;;;;5.99;2.61;;;;;;;17.75;89.90;99102.03;2028983;79;20266;-77
2021/09/10 01:11:54;;;;;;;3.44;2.49;;;;;;;17.73;89.87;99102.09;2028659;79;20159;-78
2021/09/10 01:15:00;;;;;;;4.99;2.81;;;;;;;17.72;90.00;99103.00;2029195;79;20183;-78
2021/09/10 01:18:16;;;;;;;3.30;2.72;;;;;;;17.75;90.05;99102.03;2017595;78;26235;-77
2021/09/10 01:21:18;;;;;;;3.00;2.78;;;;;;;17.81;89.59;99093.94;2016499;80;20176;-77
2021/09/10 01:24:26;;;;;;;2.84;2.54;;;;;;;17.87;89.38;99091.06;2016331;80;20245;-77
2021/09/10 01:27:29;;;;;;;3.71;3.02;;;;;;;17.91;89.48;99083.91;2017609;80;20640;-78
2021/09/10 01:30:35;;;;;;;3.29;2.81;;;;;;;17.93;89.15;99085.56;2017377;78;24223;-78
2021/09/10 01:33:38;;;;;;;3.28;2.90;;;;;;;17.93;89.13;99089.97;2017372;80;20164;-77
2021/09/10 01:36:40;;;;;;;4.84;2.94;;;;;;;17.90;88.94;99090.94;2017146;80;20269;-77
2021/09/10 01:39:43;;;;;;;3.90;3.29;;;;;;;17.84;89.24;99099.06;2017405;80;20193;-78
2021/09/10 01:42:45;;;;;;;3.40;2.96;;;;;;;17.84;89.40;99098.22;2017825;80;20259;-77
2021/09/10 01:45:49;;;;;;;3.61;3.09;;;;;;;17.84;89.56;99095.59;2014255;78;51108;-77
2021/09/10 01:48:51;;;;;;;3.95;2.95;;;;;;;17.83;89.73;99094.75;2017435;80;20212;-77
2021/09/10 01:51:54;;;;;;;5.71;3.13;;;;;;;17.82;89.67;99103.53;2017705;80;20621;-77
2021/09/10 01:54:57;;;;;;;3.09;2.89;;;;;;;17.83;89.74;99105.25;2021400;79;20707;-77
2021/09/10 01:58:00;;;;;;;2.69;2.49;;;;;;;17.83;89.79;99092.13;2028954;79;21242;-77
2021/09/10 02:01:03;;;;;;;5.21;2.88;;;;;;;17.86;89.79;99097.25;2028084;77;33090;-77
2021/09/10 02:04:06;;;;;;;5.36;2.75;;;;;;;17.87;89.73;99100.72;2029609;79;20163;-77
2021/09/10 02:07:08;;;;;;;3.44;3.11;;;;;;;17.88;89.71;99094.56;2029157;79;20234;-77
2021/09/10 02:10:13;;;;;;;4.44;2.90;;;;;;;17.87;89.52;99095.47;2029417;79;20195;-77
2021/09/10 02:13:16;;;;;;;6.93;3.55;;;;;;;17.85;89.46;99089.44;2028963;79;20667;-77
2021/09/10 02:16:19;;;;;;;5.21;2.66;;;;;;;17.82;89.45;99087.78;2030522;77;20907;-77
2021/09/10 02:19:21;;;;;;;3.42;3.22;;;;;;;17.82;89.39;99085.16;2034870;79;20177;-78
2021/09/10 02:22:24;;;;;;;3.83;3.09;;;;;;;17.83;89.20;99091.25;2036023;79;20170;-77
2021/09/10 02:25:26;;;;;;;3.41;3.06;;;;;;;17.78;89.11;99094.06;2034684;79;20183;-77
2021/09/10 02:28:29;;;;;;;3.86;3.45;;;;;;;17.77;88.79;99095.84;2035661;79;20182;-77
2021/09/10 02:31:32;;;;;;;6.55;3.10;;;;;;;17.79;88.00;99101.03;2032266;77;21025;-77
2021/09/10 02:34:35;;;;;;;3.53;3.20;;;;;;;17.81;87.11;99096.56;2029600;79;20158;-77
2021/09/10 02:37:38;;;;;;;2.97;2.78;;;;;;;17.81;86.88;99099.19;2029409;80;20237;-77
2021/09/10 02:40:40;;;;;;;3.21;2.99;;;;;;;17.80;86.65;99097.50;2029993;79;20178;-77
2021/09/10 02:43:43;;;;;;;3.94;2.97;;;;;;;17.83;86.23;99089.47;2029257;80;20162;-77
2021/09/10 02:46:46;;;;;;;7.04;3.10;;;;;;;17.85;86.03;99090.28;2029355;77;24067;-77
2021/09/10 02:49:48;;;;;;;6.13;3.08;;;;;;;17.86;85.75;99081.47;2030578;79;20166;-77
2021/09/10 02:52:51;;;;;;;4.56;3.54;;;;;;;17.86;85.36;99078.00;2029130;79;20242;-77
2021/09/10 02:55:56;;;;;;;3.83;2.95;;;;;;;17.88;85.01;99074.41;2030547;79;20205;-77
2021/09/10 02:58:58;;;;;;;5.10;3.40;;;;;;;17.89;85.57;99070.84;2030949;79;20178;-77
2021/09/10 03:02:01;;;;;;;3.08;2.88;;;;;;;17.93;85.97;99079.47;2029602;79;21138;-77
2021/09/10 03:05:06;;;;;;;3.94;3.30;;;;;;;17.90;86.41;99071.69;2029458;79;20731;-77
2021/09/10 03:08:08;;;;;;;3.21;2.91;;;;;;;17.90;86.37;99067.31;2029480;79;20151;-77
2021/09/10 03:11:11;;;;;;;3.90;3.21;;;;;;;17.90;86.38;99067.31;2029421;79;20179;-78
2021/09/10 03:14:14;;;;;;;3.40;3.01;;;;;;;17.87;86.33;99062.19;2029076;79;20212;-77
2021/09/10 03:17:17;;;;;;;3.97;3.20;;;;;;;17.87;85.68;99066.56;2028041;77;23770;-77
2021/09/10 03:20:19;;;;;;;5.80;3.04;;;;;;;17.88;85.28;99065.66;2028644;79;20166;-77
2021/09/10 03:23:22;;;;;;;3.36;2.92;;;;;;;17.87;85.09;99062.19;2028523;79;21050;-77
2021/09/10 03:26:24;;;;;;;3.46;2.90;;;;;;;17.87;84.73;99061.31;2029841;79;20167;-77
2021/09/10 03:29:27;;;;;;;4.13;2.63;;;;;;;17.87;84.55;99066.56;2029493;79;20247;-77
2021/09/10 03:32:30;;;;;;;2.99;2.75;;;;;;;17.79;84.98;99061.63;2028262;77;21380;-77
2021/09/10 03:35:32;;;;;;;5.45;3.42;;;;;;;17.77;84.74;99066.06;2030216;79;20865;-77
2021/09/10 03:38:35;;;;;;;3.94;2.80;;;;;;;17.72;84.87;99061.00;2029318;79;20543;-77
2021/09/10 03:41:37;;;;;;;5.93;3.05;;;;;;;17.73;84.94;99059.22;2028442;79;20190;-77
2021/09/10 03:44:40;;;;;;;3.38;3.14;;;;;;;17.72;85.07;99055.75;2029097;79;20178;-77
2021/09/10 03:47:43;;;;;;;3.76;3.36;;;;;;;17.75;85.11;99060.88;2028221;77;44738;-78
2021/09/10 03:50:45;;;;;;;3.21;3.01;;;;;;;17.74;85.24;99061.78;2028037;79;20191;-77
2021/09/10 03:53:48;;;;;;;3.86;3.17;;;;;;;17.73;85.17;99059.22;2030682;79;20998;-77
2021/09/10 03:56:50;;;;;;;4.01;2.97;;;;;;;17.69;84.98;99066.38;2029334;79;20616;-77
2021/09/10 03:59:53;;;;;;;3.31;3.10;;;;;;;17.67;84.86;99059.44;2029213;79;20159;-77
2021/09/10 04:02:56;;;;;;;3.16;2.96;;;;;;;17.68;84.92;99063.81;2027473;78;21739;-77
2021/09/10 04:05:58;;;;;;;4.54;3.17;;;;;;;17.70;84.88;99057.59;2029059;79;20190;-77
2021/09/10 04:09:01;;;;;;;5.63;3.30;;;;;;;17.70;85.00;99051.47;2031286;79;20194;-77
2021/09/10 04:12:04;;;;;;;3.24;3.04;;;;;;;17.69;85.33;99048.00;2029114;79;20170;-78
2021/09/10 04:15:07;;;;;;;3.35;3.05;;;;;;;17.67;85.37;99054.19;2029303;79;20242;-77
2021/09/10 04:18:10;;;;;;;3.58;3.28;;;;;;;17.65;85.36;99056.88;2028152;77;21008;-77
2021/09/10 04:21:13;;;;;;;3.26;3.06;;;;;;;17.65;85.35;99053.41;2028358;79;20254;-77
2021/09/10 04:24:17;;;;;;;3.06;2.86;;;;;;;17.66;85.33;99049.84;2029490;79;20185;-77
2021/09/10 04:27:20;;;;;;;3.69;2.97;;;;;;;17.64;85.54;99056.94;2028459;79;20162;-77
2021/09/10 04:30:23;;;;;;;3.99;3.69;;;;;;;17.58;85.58;99057.16;2027292;77;22991;-77
2021/09/10 04:33:25;;;;;;;3.51;3.31;;;;;;;17.55;85.47;99059.91;2027905;79;20174;-77
2021/09/10 04:36:29;;;;;;;3.20;2.99;;;;;;;17.56;85.36;99061.59;2028834;79;20198;-77
2021/09/10 04:39:31;;;;;;;4.26;3.16;;;;;;;17.54;85.47;99066.91;2028150;79;20196;-77
2021/09/10 04:42:34;;;;;;;3.21;2.95;;;;;;;17.55;85.57;99060.75;2028698;79;20215;-77
2021/09/10 04:45:37;;;;;;;7.61;3.50;;;;;;;17.58;85.43;99060.63;2027256;77;23278;-77
2021/09/10 04:48:40;;;;;;;3.63;3.34;;;;;;;17.59;85.86;99062.34;2028138;79;20367;-77
2021/09/10 04:51:43;;;;;;;2.83;2.59;;;;;;;17.59;85.97;99067.59;2028117;79;20186;-77
2021/09/10 04:54:45;;;;;;;3.49;3.19;;;;;;;17.57;86.07;99069.44;2024264;79;20171;-77
2021/09/10 04:57:48;;;;;;;3.45;3.15;;;;;;;17.58;86.06;99070.28;2022820;80;20192;-77
2021/09/10 05:00:51;;;;;;;4.09;3.13;;;;;;;17.59;86.08;99072.84;2022177;77;34250;-77
2021/09/10 05:03:53;;;;;;;5.14;3.20;;;;;;;17.60;86.23;99073.72;2022530;80;20192;-77
2021/09/10 05:06:56;;;;;;;3.53;3.28;;;;;;;17.58;86.25;99072.91;2022540;80;20196;-77
2021/09/10 05:10:03;;;;;;;3.75;3.45;;;;;;;17.61;86.16;99078.06;2021563;80;20256;-77
2021/09/10 05:13:05;;;;;;;3.63;3.36;;;;;;;17.60;86.23;99081.59;2023272;80;20169;-77
2021/09/10 05:16:08;;;;;;;3.35;3.03;;;;;;;17.60;86.07;99086.84;2021282;78;21409;-77
2021/09/10 05:19:12;;;;;;;3.86;3.56;;;;;;;17.64;85.89;99091.94;2022969;80;20229;-77
2021/09/10 05:22:15;;;;;;;3.35;3.05;;;;;;;17.65;86.31;99090.16;2023815;80;20285;-77
2021/09/10 05:25:18;;;;;;;3.70;3.40;;;;;;;17.65;86.15;99083.13;2023216;80;20651;-77
2021/09/10 05:28:20;;;;;;;3.86;3.35;;;;;;;17.67;86.00;99081.31;2022888;80;20196;-76
2021/09/10 05:31:23;;;;;;;3.79;3.49;;;;;;;17.71;86.33;99087.31;2022859;77;22745;-77
2021/09/10 05:34:26;;;;;;;5.59;3.21;;;;;;;17.73;86.21;99081.09;2022372;80;20175;-77
2021/09/10 05:37:29;;;;;;;3.49;3.19;;;;;;;17.75;85.77;99086.28;2022642;80;20186;-77
2021/09/10 05:40:31;;;;;;;3.58;3.28;;;;;;;17.79;85.75;99093.16;2022726;80;20191;-77
2021/09/10 05:43:34;;;;;;;3.61;3.31;;;;;;;17.78;86.00;99094.94;2020878;80;20187;-77
2021/09/10 05:46:36;;;;;;;5.15;3.38;;;;;;;17.79;85.96;99093.16;2019511;78;23129;-77
2021/09/10 05:49:39;;;;;;;3.56;3.00;;;;;;;17.79;85.76;99101.88;2022958;80;20255;-77
2021/09/10 05:52:42;;;;;;;6.88;3.33;;;;;;;17.76;85.56;99103.75;2022750;80;20215;-78
2021/09/10 05:55:45;;;;;;;5.29;3.41;;;;;;;17.74;85.31;99100.31;2026476;79;20715;-77
2021/09/10 05:58:48;;;;;;;4.36;3.94;;;;;;;17.78;85.05;99104.56;2026706;79;20912;-78
2021/09/10 06:01:50;;;;;;;5.06;3.50;;;;;;;17.81;84.93;99110.56;2026909;77;23062;-77
2021/09/10 06:04:54;;;;;;;6.01;3.31;;;;;;;17.82;84.97;99111.41;2026980;79;20196;-77
2021/09/10 06:07:57;;;;;;;4.10;3.66;;;;;;;17.84;85.02;99114.84;2028608;79;20247;-77
2021/09/10 06:10:59;;;;;;;3.40;3.09;;;;;;;17.89;84.96;99112.88;2028293;79;20279;-78
2021/09/10 06:14:02;;;;;;;3.94;3.64;;;;;;;17.91;85.13;99118.06;2028503;79;20182;-77
2021/09/10 06:17:05;;;;;;;3.97;3.61;;;;;;;17.96;84.82;99119.63;2025037;77;21769;-77
2021/09/10 06:20:09;;;;;;;3.91;3.35;;;;;;;18.01;84.72;99125.53;2025879;80;20199;-77
2021/09/10 06:23:12;;;;;;;4.11;3.51;;;;;;;18.01;84.57;99127.31;2027630;79;20258;-77
2021/09/10 06:26:15;;;;;;;6.90;4.05;;;;;;;18.04;84.51;99128.06;2028073;80;20901;-77
2021/09/10 06:29:18;;;;;;;3.25;3.05;;;;;;;18.01;84.10;99130.81;2028315;79;20186;-78
2021/09/10 06:32:24;;;;;;;4.93;3.08;;;;;;;18.02;84.37;99119.38;2025840;77;21798;-77
2021/09/10 06:35:26;;;;;;;5.63;3.50;;;;;;;18.09;84.43;99130.50;2027854;79;20182;-77
2021/09/10 06:38:29;;;;;;;4.25;3.50;;;;;;;18.12;84.09;99125.97;2027077;79;20242;-77
2021/09/10 06:41:31;;;;;;;4.81;3.44;;;;;;;18.17;83.72;99132.84;2027214;79;20232;-78
2021/09/10 06:44:34;;;;;;;3.78;3.39;;;;;;;18.17;83.24;99135.47;2027008;79;20189;-78
2021/09/10 06:47:37;;;;;;;6.49;3.44;;;;;;;18.17;82.96;99138.94;2029125;77;22856;-78
2021/09/10 06:50:39;;;;;;;7.41;3.76;;;;;;;18.19;82.98;99141.50;2028233;79;20242;-78
2021/09/10 06:53:42;;;;;;;3.31;3.11;;;;;;;18.19;82.90;99139.75;2026707;79;20588;-78
2021/09/10 06:56:45;;;;;;;4.15;3.19;;;;;;;18.22;83.06;99144.00;2029682;79;20170;-78
2021/09/10 06:59:49;;;;;;;3.34;3.10;;;;;;;18.26;82.85;99146.47;2025084;79;20194;-78
2021/09/10 07:02:53;;;;;;;3.75;3.20;;;;;;;18.30;82.77;99145.41;2028735;77;22349;-78
2021/09/10 07:05:56;;;;;;;3.71;3.40;;;;;;;18.35;82.77;99147.88;2029187;79;20190;-78
2021/09/10 07:08:58;;;;;;;5.45;3.47;;;;;;;18.38;82.82;99150.38;2028555;79;20270;-78
2021/09/10 07:12:03;;;;;;;3.16;2.94;;;;;;;18.37;82.61;99157.41;2029299;79;20228;-78
2021/09/10 07:15:06;;;;;;;3.65;3.29;;;;;;;18.39;82.71;99157.34;2030608;79;20302;-78
2021/09/10 07:18:12;;;;;;;3.40;3.15;;;;;;;18.40;82.87;99159.06;2028963;79;21142;-80
2021/09/10 07:21:15;;;;;;;3.64;3.28;;;;;;;18.43;82.82;99166.81;2025773;79;20250;-79
2021/09/10 07:24:19;;;;;;;5.55;3.34;;;;;;;18.43;82.76;99166.81;2029003;79;20755;-78
2021/09/10 07:27:22;;;;;;;4.18;3.30;;;;;;;18.41;82.90;99160.78;2023395;80;20191;-79
2021/09/10 07:30:25;;;;;;;3.20;3.01;;;;;;;18.39;82.56;99167.88;2022733;80;21243;-79
2021/09/10 07:33:28;;;;;;;3.65;3.45;;;;;;;18.39;82.61;99179.22;2021518;80;20174;-79
2021/09/10 07:36:31;;;;;;;5.01;3.78;;;;;;;18.40;82.93;99173.06;2020186;80;20199;-79
2021/09/10 07:39:33;;;;;;;3.51;3.29;;;;;;;18.42;82.67;99184.38;2020239;80;20226;-78
2021/09/10 07:42:36;;;;;;;4.26;3.86;;;;;;;18.49;82.75;99185.00;2019985;80;20179;-79
2021/09/10 07:45:40;;;;;;;4.26;3.34;;;;;;;18.58;83.01;99187.25;2020241;77;24116;-78
2021/09/10 07:48:42;;;;;;;3.97;3.67;;;;;;;18.68;83.03;99183.38;2020933;80;20209;-78
2021/09/10 07:51:45;;;;;;;3.81;3.42;;;;;;;18.80;82.92;99182.00;2021096;80;20191;-78
2021/09/10 07:54:48;;;;;;;3.84;3.54;;;;;;;18.87;82.23;99179.97;2021608;80;20724;-78
2021/09/10 07:57:56;;;;;;;3.32;3.10;;;;;;;18.94;81.38;99179.66;2020896;80;20190;-78
2021/09/10 08:00:59;;;;;;;4.06;3.41;;;;;;;19.09;81.45;99188.69;2021900;77;30454;-83
2021/09/10 08:04:02;;;;;;;3.58;3.30;;;;;;;19.21;81.33;99187.28;2020964;80;20345;-77
2021/09/10 08:07:07;;;;;;;4.06;3.42;;;;;;;19.35;81.24;99197.22;2017830;80;20236;-77
2021/09/10 08:10:30;;;;;;;3.55;3.25;;;;;;;19.45;80.31;99196.78;2019637;80;20191;-77
2021/09/10 08:13:32;;;;;;;3.54;3.20;;;;;;;19.58;79.30;99202.41;2020827;80;20240;-77
2021/09/10 08:16:36;;;;;;;3.90;3.47;;;;;;;19.67;78.89;99195.84;2018457;77;23693;-77
2021/09/10 08:19:39;;;;;;;3.41;3.11;;;;;;;19.72;77.96;99189.44;2023933;80;20267;-77
2021/09/10 08:22:42;;;;;;;3.54;3.24;;;;;;;19.80;77.95;99197.88;2020662;80;20160;-78
2021/09/10 08:25:44;;;;;;;3.97;3.33;;;;;;;19.86;78.24;99202.88;2020804;80;20179;-77
2021/09/10 08:28:48;;;;;;;3.40;3.06;;;;;;;19.94;78.04;99201.69;2021231;80;21010;-78
2021/09/10 08:31:50;;;;;;;3.30;3.00;;;;;;;20.01;77.88;99211.00;2021361;77;23231;-77
2021/09/10 08:34:56;;;;;;;3.45;3.15;;;;;;;20.11;77.66;99207.88;2022765;80;20182;-78
2021/09/10 08:37:59;;;;;;;3.54;3.34;;;;;;;20.16;76.48;99205.88;2021129;80;20160;-77
2021/09/10 08:41:03;;;;;;;6.41;3.24;;;;;;;20.28;75.68;99211.50;2024747;80;20186;-78
2021/09/10 08:44:06;;;;;;;3.38;2.90;;;;;;;20.39;73.77;99215.34;2021802;80;20291;-77
2021/09/10 08:47:10;;;;;;;5.04;3.44;;;;;;;20.57;73.89;99218.94;2018062;80;21340;-77
2021/09/10 08:50:13;;;;;;;4.38;3.29;;;;;;;20.69;71.71;99221.00;2021050;80;20183;-77
2021/09/10 08:53:16;;;;;;;3.80;3.51;;;;;;;20.77;70.88;99212.69;2020145;80;20175;-77
2021/09/10 08:56:18;;;;;;;3.76;3.46;;;;;;;20.96;70.08;99213.47;2021023;80;21132;-78
2021/09/10 08:59:21;;;;;;;5.01;3.54;;;;;;;21.23;69.48;99218.34;2021141;80;20175;-77
2021/09/10 09:02:25;;;;;;;5.31;3.50;;;;;;;21.48;68.62;99213.53;2021063;77;21557;-77
2021/09/10 09:05:29;;;;;;;6.11;3.24;;;;;;;21.58;67.32;99220.06;2021088;80;21245;-77
2021/09/10 09:08:32;;;;;;;4.21;3.22;;;;;;;21.64;67.33;99217.06;2021566;80;21278;-77
2021/09/10 09:11:36;;;;;;;7.59;3.45;;;;;;;21.74;67.52;99212.19;2023287;80;20207;-78
2021/09/10 09:14:44;;;;;;;3.36;3.04;;;;;;;21.68;67.02;99225.69;2024063;80;20182;-77
2021/09/10 09:17:47;;;;;;;3.67;3.20;;;;;;;21.65;67.26;99228.50;2017762;77;30972;-77
2021/09/10 09:20:50;;;;;;;4.36;3.00;;;;;;;21.48;67.04;99223.25;2021058;80;20310;-77
2021/09/10 09:23:55;;;;;;;2.91;2.71;;;;;;;21.38;67.79;99223.72;2018406;80;20729;-78
2021/09/10 09:26:58;;;;;;;3.91;3.49;;;;;;;21.27;68.15;99222.56;2017987;80;20159;-77
2021/09/10 09:30:01;;;;;;;3.46;3.16;;;;;;;21.29;68.36;99226.81;2017361;80;20168;-77
2021/09/10 09:33:04;;;;;;;3.51;3.30;;;;;;;21.33;67.83;99220.44;2020571;77;23860;-77
2021/09/10 09:36:11;;;;;;;3.36;3.16;;;;;;;21.44;66.77;99213.78;2022451;80;20214;-77
2021/09/10 09:39:13;;;;;;;4.56;3.41;;;;;;;21.68;66.95;99210.69;2022737;80;20309;-77
2021/09/10 09:42:24;;;;;;;6.64;3.71;;;;;;;22.10;67.55;99211.19;2023272;80;20212;-77
2021/09/10 09:45:26;;;;;;;5.76;3.19;;;;;;;22.55;65.52;99211.25;2020363;77;22408;-77
2021/09/10 09:48:29;;;;;;;3.86;3.13;;;;;;;23.04;64.11;99207.63;2017445;80;20368;-77
2021/09/10 09:51:32;;;;;;;3.17;2.86;;;;;;;23.40;61.61;99200.16;2016175;80;20200;-77
2021/09/10 09:54:34;;;;;;;5.39;2.59;;;;;;;23.81;61.70;99200.31;2020207;80;20293;-77
2021/09/10 09:57:38;;;;;;;3.38;3.08;;;;;;;24.09;59.89;99206.56;2020305;80;20287;-77
2021/09/10 10:00:43;;;;;;;3.58;2.83;;;;;;;24.11;58.96;99199.38;2018273;77;28114;-77
2021/09/10 10:03:48;;;;;;;6.19;2.70;;;;;;;24.30;59.34;99201.75;2020859;80;20207;-77
2021/09/10 10:06:53;;;;;;;2.50;2.29;;;;;;;24.38;58.74;99205.59;2021896;80;20927;-77
2021/09/10 10:09:57;;;;;;;3.01;2.71;;;;;;;24.47;57.99;99214.78;2022352;80;20589;-77
2021/09/10 10:13:02;;;;;;;2.63;2.40;;;;;;;24.37;57.40;99211.84;2022489;80;20182;-78
2021/09/10 10:16:05;;;;;;;2.78;2.42;;;;;;;24.36;57.70;99214.63;2019978;80;21357;-77
2021/09/10 10:19:24;;;;;;;2.64;2.44;;;;;;;24.52;58.40;99218.00;2015092;80;20179;-77
2021/09/10 10:22:33;;;;;;;6.64;2.35;;;;;;;24.50;56.72;99211.94;2015570;80;20176;-77
2021/09/10 10:26:08;;;;;;;2.67;2.21;;;;;;;24.60;57.62;99214.88;2014948;80;21156;-77
2021/09/10 10:29:15;;;;;;;2.81;2.50;;;;;;;24.78;58.38;99218.97;2015599;80;20183;-77
2021/09/10 10:32:39;;;;;;;10.27;3.19;;;;;;;24.76;56.97;99210.22;2018217;77;23822;-77
2021/09/10 10:35:43;;;;;;;5.50;2.33;;;;;;;24.85;57.91;99211.44;2019511;80;20256;-77
2021/09/10 10:39:07;;;;;;;2.35;2.15;;;;;;;25.11;58.13;99202.63;2019969;80;20675;-78
2021/09/10 10:42:10;;;;;;;4.11;1.98;;;;;;;25.42;56.71;99198.75;2020339;80;20236;-77
2021/09/10 10:45:12;;;;;;;4.38;2.22;;;;;;;25.53;56.31;99196.22;2021417;80;20190;-77
2021/09/10 10:48:27;;;;;;;4.61;2.45;;;;;;;25.59;56.55;99195.78;2016293;77;21396;-78
2021/09/10 10:51:30;;;;;;;8.73;2.20;;;;;;;25.47;56.10;99203.72;2016483;80;20207;-78
2021/09/10 10:54:33;;;;;;;2.10;1.98;;;;;;;25.06;55.91;99202.06;2013978;80;20273;-77
2021/09/10 10:57:35;;;;;;;3.29;2.28;;;;;;;24.57;56.67;99202.59;2011510;80;20238;-78
2021/09/10 11:01:03;;;;;;;2.88;2.41;;;;;;;24.19;58.18;99201.53;2011714;77;21627;-78
2021/09/10 11:04:06;;;;;;;5.41;2.31;;;;;;;23.88;59.56;99198.16;2018521;80;20208;-77
2021/09/10 11:07:09;;;;;;;7.15;1.96;;;;;;;23.61;61.13;99203.34;2016163;80;21241;-78
2021/09/10 11:10:18;;;;;;;2.56;2.00;;;;;;;23.46;61.79;99196.28;2017002;80;20187;-77
2021/09/10 11:13:21;;;;;;;4.70;2.54;;;;;;;23.37;62.10;99203.00;2015603;80;20197;-77
2021/09/10 11:16:29;;;;;;;2.46;2.05;;;;;;;23.41;63.39;99201.88;2015975;77;32821;-76
2021/09/10 11:19:32;;;;;;;2.63;1.81;;;;;;;23.58;63.72;99205.34;2016749;80;20338;-77
2021/09/10 11:22:47;;;;;;;3.91;2.19;;;;;;;23.96;63.29;99205.63;2017532;80;21066;-78
2021/09/10 11:25:52;;;;;;;1.84;1.73;;;;;;;24.32;60.65;99205.16;2017833;80;20217;-77
2021/09/10 11:28:55;;;;;;;3.45;2.00;;;;;;;24.44;60.75;99203.53;2017884;80;20176;-77
2021/09/10 11:32:21;;;;;;;2.33;1.60;;;;;;;24.47;60.35;99204.16;2012095;78;21214;-77
2021/09/10 11:35:25;;;;;;;1.40;1.30;;;;;;;24.44;60.45;99203.53;2010829;80;20759;-77
2021/09/10 11:38:28;;;;;;;2.63;1.10;;;;;;;24.35;60.92;99197.84;2009864;80;20180;-77
2021/09/10 11:41:32;;;;;;;1.24;1.15;;;;;;;24.11;60.52;99207.34;2010481;80;20748;-77
2021/09/10 11:44:35;;;;;;;1.48;1.14;;;;;;;23.86;60.59;99207.13;2011253;80;20168;-76
2021/09/10 11:47:40;;;;;;;1.25;1.14;;;;;;;23.58;61.61;99208.00;2015400;77;20964;-76
2021/09/10 11:50:58;;;;;;;1.30;1.20;;;;;;;23.32;62.52;99212.16;2016970;80;20215;-77
2021/09/10 11:54:00;;;;;;;2.83;1.08;;;;;;;23.18;62.64;99207.69;2019405;80;20708;-76
2021/09/10 11:57:18;;;;;;;1.38;1.02;;;;;;;23.20;64.41;99208.44;2022488;80;20576;-77
2021/09/10 12:00:26;;;;;;;2.11;0.96;;;;;;;23.19;62.73;99197.00;2017129;80;20256;-76
2021/09/10 12:03:29;;;;;;;0.90;0.90;;;;;;;23.15;63.39;99206.03;2018491;80;20241;-76
2021/09/10 12:06:38;;;;;;;1.30;1.06;;;;;;;23.11;63.61;99206.31;2017692;80;20191;-77
2021/09/10 12:09:54;;;;;;;2.16;0.81;;;;;;;23.12;64.36;99202.72;2016210;80;20569;-76
2021/09/10 13:12:20;;;;;;;1.66;1.49;;;;;;;23.05;62.17;99188.16;2195650;72;20211;-79
2021/09/10 13:15:31;;;;;;;1.70;1.60;;;;;;;22.79;63.31;99195.75;1999109;71;20167;-81
2021/09/10 13:23:02;;;;;;;1.60;1.50;;;;;;;22.48;64.37;99187.88;1994185;82;20215;-81
2021/09/10 13:26:04;;;;;;;1.44;1.34;;;;;;;22.40;65.06;99190.09;1987824;82;20214;-80
2021/09/10 13:29:07;;;;;;;1.44;1.40;;;;;;;22.46;65.39;99187.13;1985890;82;20252;-80
2021/09/10 13:32:09;;;;;;;2.26;1.40;;;;;;;22.56;65.74;99186.50;1983304;79;30747;-80
2021/09/10 13:35:12;;;;;;;2.33;1.54;;;;;;;22.73;66.01;99188.19;1986898;81;20283;-80
2021/09/10 13:38:15;;;;;;;1.59;1.49;;;;;;;22.86;65.74;99186.59;1987957;81;20208;-80
2021/09/10 13:41:17;;;;;;;1.30;1.20;;;;;;;22.95;64.47;99181.69;1989091;82;20192;-80
2021/09/10 13:44:20;;;;;;;1.24;1.08;;;;;;;23.08;62.98;99177.38;1987964;82;20658;-79
2021/09/10 13:47:24;;;;;;;2.16;1.30;;;;;;;23.22;62.62;99177.41;1986315;79;20173;-80
2021/09/10 13:50:27;;;;;;;1.42;1.33;;;;;;;23.40;62.89;99178.97;1987794;82;20786;-79
2021/09/10 13:53:29;;;;;;;2.54;1.58;;;;;;;23.44;61.67;99180.47;1986742;81;20206;-80
2021/09/10 13:56:32;;;;;;;1.73;1.63;;;;;;;23.43;61.75;99184.06;1985609;82;20759;-80
2021/09/10 13:59:35;;;;;;;1.73;1.61;;;;;;;23.37;61.63;99184.44;1988074;81;20202;-80
2021/09/10 14:02:37;;;;;;;2.25;1.75;;;;;;;23.37;61.97;99181.81;1982019;79;26432;-81
2021/09/10 14:05:41;;;;;;;3.42;1.69;;;;;;;23.35;61.85;99188.16;1986574;81;20221;-80
2021/09/10 14:08:43;;;;;;;2.24;1.71;;;;;;;23.40;62.68;99178.13;1986452;82;20673;-81
2021/09/10 14:11:46;;;;;;;2.47;1.70;;;;;;;23.51;62.52;99183.59;1985345;82;20529;-80
2021/09/10 14:14:50;;;;;;;4.68;1.60;;;;;;;23.64;62.90;99186.41;1987007;81;20184;-80
2021/09/10 14:17:53;;;;;;;1.89;1.60;;;;;;;23.72;61.57;99181.50;1985953;79;23329;-81
2021/09/10 14:20:57;;;;;;;2.58;1.70;;;;;;;23.54;59.57;99186.09;1987205;82;20271;-80
2021/09/10 14:23:59;;;;;;;2.24;1.69;;;;;;;23.33;60.38;99182.91;1981650;82;20206;-80
2021/09/10 14:27:02;;;;;;;1.69;1.59;;;;;;;23.26;60.51;99194.84;1986490;82;20291;-80
2021/09/10 14:30:06;;;;;;;1.73;1.63;;;;;;;23.07;60.71;99191.56;1985413;82;20299;-80
2021/09/10 14:33:08;;;;;;;1.70;1.60;;;;;;;22.94;61.61;99186.13;1980468;79;23622;-80
2021/09/10 14:36:11;;;;;;;1.84;1.50;;;;;;;22.86;61.98;99188.38;1984035;81;20267;-80
2021/09/10 14:39:14;;;;;;;1.60;1.41;;;;;;;22.60;62.20;99187.19;1985237;82;21336;-80
2021/09/10 14:42:16;;;;;;;1.61;1.54;;;;;;;22.40;63.01;99187.44;1985834;82;20346;-80
2021/09/10 14:45:19;;;;;;;1.60;1.50;;;;;;;22.24;64.02;99193.59;1983198;82;20210;-80
2021/09/10 14:48:21;;;;;;;2.24;1.80;;;;;;;22.01;64.19;99200.09;1985924;79;22163;-80
2021/09/10 14:51:24;;;;;;;2.06;1.84;;;;;;;21.80;65.30;99193.34;1986045;81;20192;-80
2021/09/10 14:54:28;;;;;;;1.89;1.79;;;;;;;21.73;65.88;99194.63;2039292;71;20185;-80
2021/09/10 14:57:30;;;;;;;1.86;1.76;;;;;;;21.81;66.66;99196.84;1981383;82;20684;-80
2021/09/10 15:00:34;;;;;;;1.59;1.44;;;;;;;21.98;67.06;99196.78;1982921;79;24610;-80
2021/09/10 15:03:39;;;;;;;3.86;1.73;;;;;;;22.18;66.94;99186.00;1987656;81;20181;-80
2021/09/10 15:06:42;;;;;;;1.63;1.52;;;;;;;22.28;65.55;99187.22;1987310;81;20267;-80
2021/09/10 15:09:45;;;;;;;1.99;1.79;;;;;;;22.37;65.02;99182.34;1988917;82;20230;-80
2021/09/10 15:12:47;;;;;;;2.97;1.66;;;;;;;22.47;65.42;99181.75;1988414;81;20632;-80
2021/09/10 15:15:51;;;;;;;2.10;1.91;;;;;;;22.48;64.71;99185.25;1989000;79;102569;-81
2021/09/10 15:18:54;;;;;;;2.49;1.61;;;;;;;22.39;64.99;99181.31;1995287;82;20177;-81
2021/09/10 15:21:57;;;;;;;2.59;2.03;;;;;;;22.41;65.53;99176.78;1996383;81;20204;-81
2021/09/10 15:25:00;;;;;;;4.96;2.19;;;;;;;22.49;65.77;99186.94;1992527;81;20222;-81
2021/09/10 15:28:04;;;;;;;1.76;1.66;;;;;;;22.53;65.17;99183.19;1994225;82;20192;-81
2021/09/10 15:31:08;;;;;;;1.71;1.61;;;;;;;22.51;64.50;99180.63;1994175;82;20177;-81